Capt. Harry — WDC3690 — position and weather

sailwx.info

Track history (hours):
 
Tides and Currents Weather Stations Pressure Air Temp Water Temp Dewpoint Dewpoint Depression Visibility Wind Speed Wind Dir Waves Ship Positions

Capt. Harry

Owner: Wilmington Tug, Inc., New Castle, DE. More information available from US FCC via Universal Licensing System and Coast Guard Vessel Documentation Center.

Last reported at 2015-Apr-28 03:33 UTC. Time now 2015-Apr-28 03:47 UTC.
Position N 39°43' W 075°31'.

Type: Tug. MMSI: 367012530.

Date/timePositionNaut miles runAvg speedWind from/ knotsBaromVisibWave heightAir tempDewpointWater temp
2015-Apr-28 03:33N 39°43' W 075°31'0 0.0
2015-Apr-28 02:33N 39°43' W 075°31'0 0.0
2015-Apr-28 01:33N 39°43' W 075°31'0 0.0
2015-Apr-28 00:33N 39°43' W 075°31'0 0.0
2015-Apr-27 23:34N 39°43' W 075°31'0 0.0
2015-Apr-27 22:33N 39°43' W 075°31'0 0.0
2015-Apr-27 21:33N 39°43' W 075°31'0 0.0
2015-Apr-27 20:33N 39°43' W 075°31'0 0.0
2015-Apr-27 19:33N 39°43' W 075°31'0 0.0
2015-Apr-27 18:33N 39°43' W 075°31'0 0.0
2015-Apr-27 17:33N 39°43' W 075°31'0 0.0
2015-Apr-27 16:33N 39°43' W 075°31'0 0.0
2015-Apr-27 15:33N 39°43' W 075°31'0 0.0
2015-Apr-27 14:33N 39°43' W 075°31'0 0.0
2015-Apr-27 13:33N 39°43' W 075°31'0 0.0
2015-Apr-27 12:33N 39°43' W 075°31'0 0.0
2015-Apr-27 11:33N 39°43' W 075°31'0 0.0
2015-Apr-27 10:33N 39°43' W 075°31'0 0.0
2015-Apr-27 09:33N 39°43' W 075°31'0 0.0
2015-Apr-27 08:33N 39°43' W 075°31'0 0.0
2015-Apr-27 07:33N 39°43' W 075°31'0 0.0
2015-Apr-27 06:33N 39°43' W 075°31'0 0.0
2015-Apr-27 05:33N 39°43' W 075°31'0 0.0
2015-Apr-27 04:33N 39°43' W 075°31'0 0.0
2015-Apr-27 03:33N 39°43' W 075°31'0 0.0
2015-Apr-27 02:33N 39°43' W 075°31'0 0.0
2015-Apr-27 01:33N 39°43' W 075°31'0 0.0
2015-Apr-27 00:33N 39°43' W 075°31'0 0.0
2015-Apr-26 23:33N 39°43' W 075°31'0 0.0
2015-Apr-26 22:33N 39°43' W 075°31'0 0.0
2015-Apr-26 21:33N 39°43' W 075°31'0 0.0
2015-Apr-26 20:33N 39°43' W 075°31'0 0.0
2015-Apr-26 19:33N 39°43' W 075°31'0 0.0
2015-Apr-26 18:33N 39°43' W 075°31'0 0.0
2015-Apr-26 17:33N 39°43' W 075°31'0 0.0
2015-Apr-26 16:33N 39°43' W 075°31'0 0.0
2015-Apr-26 15:33N 39°43' W 075°31'0 0.0
2015-Apr-26 14:33N 39°43' W 075°31'0 0.0
2015-Apr-26 13:33N 39°43' W 075°31'0 0.0
2015-Apr-26 12:33N 39°43' W 075°31'0 0.0
2015-Apr-26 11:33N 39°43' W 075°31'0 0.0
2015-Apr-26 10:33N 39°43' W 075°31'0 0.0
2015-Apr-26 09:33N 39°43' W 075°31'0 0.0
2015-Apr-26 08:33N 39°43' W 075°31'0 0.0
2015-Apr-26 07:33N 39°43' W 075°31'0 0.0
2015-Apr-26 06:33N 39°43' W 075°31'0 0.0
2015-Apr-26 05:33N 39°43' W 075°31'0 0.0
2015-Apr-26 04:33N 39°43' W 075°31'0 0.0
2015-Apr-26 03:33N 39°43' W 075°31'0 0.0
2015-Apr-26 02:33N 39°43' W 075°31'0 0.0
2015-Apr-26 01:33N 39°43' W 075°31'0 0.0
2015-Apr-26 00:33N 39°43' W 075°31'0 0.0
2015-Apr-25 23:33N 39°43' W 075°31'0 0.0
2015-Apr-25 22:33N 39°43' W 075°31'0 0.0
2015-Apr-25 21:33N 39°43' W 075°31'0 0.0
2015-Apr-25 20:33N 39°43' W 075°31'0 0.0
2015-Apr-25 19:33N 39°43' W 075°31'0 0.0
2015-Apr-25 18:33N 39°43' W 075°31'0 0.0
2015-Apr-25 17:33N 39°43' W 075°31'9 9.2
2015-Apr-25 16:33N 39°49' W 075°23'5 5.3
2015-Apr-25 15:33N 39°51' W 075°16'0 0.2
2015-Apr-25 14:33N 39°51' W 075°16'0 0.0
2015-Apr-25 13:33N 39°51' W 075°16'3 2.9
2015-Apr-25 12:33N 39°51' W 075°19'1 0.9
2015-Apr-25 11:33N 39°51' W 075°20'2 1.9
2015-Apr-25 10:33N 39°50' W 075°22'2 2.3
2015-Apr-25 09:33N 39°49' W 075°25'0 0.0
2015-Apr-25 08:33N 39°49' W 075°25'0 0.4
2015-Apr-25 07:33N 39°49' W 075°24'0 0.4
2015-Apr-25 06:33N 39°48' W 075°25'7 7.3
2015-Apr-25 05:34N 39°43' W 075°31'0 0.0
2015-Apr-25 04:33N 39°43' W 075°31'0 0.0
2015-Apr-25 03:33N 39°43' W 075°31'0 0.0
2015-Apr-25 02:33N 39°43' W 075°31'0 0.0
2015-Apr-25 01:33N 39°43' W 075°31'0 0.0
2015-Apr-25 00:33N 39°43' W 075°31'0 0.0
2015-Apr-24 23:33N 39°43' W 075°31'1 0.5
2015-Apr-24 22:34N 39°43' W 075°31'0 0.4
2015-Apr-24 21:33N 39°43' W 075°30'9 8.8
2015-Apr-24 20:33N 39°35' W 075°35'0 0.0
2015-Apr-24 19:33N 39°35' W 075°35'2 2.3
2015-Apr-24 18:33N 39°37' W 075°36'7 7.0
2015-Apr-24 17:33N 39°43' W 075°31'0 0.0
2015-Apr-24 16:33N 39°43' W 075°31'0 0.0
2015-Apr-24 15:33N 39°43' W 075°31'0 0.0
2015-Apr-24 14:33N 39°43' W 075°31'7 6.6
2015-Apr-24 13:33N 39°38' W 075°36'6 6.3
2015-Apr-24 12:33N 39°32' W 075°33'5 4.6
2015-Apr-24 11:32N 39°27' W 075°33'5 5.6
2015-Apr-24 10:33N 39°23' W 075°28'6 5.7
2015-Apr-24 09:33N 39°19' W 075°24'6 6.3
2015-Apr-24 08:33N 39°14' W 075°18'7 6.6
2015-Apr-24 07:33N 39°08' W 075°14'7 6.6
2015-Apr-24 06:28N 39°02' W 075°09'13 6.3
2015-Apr-24 04:28N 39°13' W 075°18'1010.4
2015-Apr-24 03:33N 39°20' W 075°26'1111.4
2015-Apr-24 02:34N 39°30' W 075°34'5 5.4
2015-Apr-24 01:33N 39°35' W 075°35'0 0.2
2015-Apr-24 00:33N 39°35' W 075°35'0 0.0
2015-Apr-23 23:33N 39°35' W 075°35'0 0.2
2015-Apr-23 22:33N 39°35' W 075°35'0 0.0
2015-Apr-23 21:33N 39°35' W 075°35'2 1.7
2015-Apr-23 20:34N 39°35' W 075°33'5 5.3
2015-Apr-23 19:34N 39°40' W 075°32'3 3.4
2015-Apr-23 18:34N 39°43' W 075°31'0 0.0
2015-Apr-23 17:33N 39°43' W 075°31'0 0.0
2015-Apr-23 16:33N 39°43' W 075°31'0 0.2
2015-Apr-23 15:34N 39°43' W 075°31'0 0.0
2015-Apr-23 14:33N 39°43' W 075°31'0 0.0
2015-Apr-23 13:33N 39°43' W 075°31'0 0.0
2015-Apr-23 12:34N 39°43' W 075°31'0 0.0
2015-Apr-23 11:33N 39°43' W 075°31'0 0.0
2015-Apr-23 10:34N 39°43' W 075°31'0 0.0
2015-Apr-23 09:34N 39°43' W 075°31'0 0.0
2015-Apr-23 08:34N 39°43' W 075°31'0 0.0
2015-Apr-23 07:34N 39°43' W 075°31'0 0.0
2015-Apr-23 06:34N 39°43' W 075°31'0 0.0
2015-Apr-23 05:34N 39°43' W 075°31'0 0.0
2015-Apr-23 04:34N 39°43' W 075°31'0 0.0
2015-Apr-23 03:34N 39°43' W 075°31'0 0.0
2015-Apr-23 02:34N 39°43' W 075°31'0 0.0
2015-Apr-23 01:33N 39°43' W 075°31'0 0.0
2015-Apr-23 00:34N 39°43' W 075°31'0 0.0
2015-Apr-22 23:34N 39°43' W 075°31'0 0.0
2015-Apr-22 22:34N 39°43' W 075°31'1 0.6
2015-Apr-22 21:34N 39°43' W 075°31'8 8.4
2015-Apr-22 20:34N 39°35' W 075°34'1 0.8
2015-Apr-22 19:34N 39°35' W 075°35'0 0.0
2015-Apr-22 18:34N 39°35' W 075°35'0 0.0
2015-Apr-22 17:34N 39°35' W 075°35'0 0.4
2015-Apr-22 16:34N 39°35' W 075°36'1 1.4
2015-Apr-22 15:34N 39°36' W 075°36'8 7.6
2015-Apr-22 14:33N 39°43' W 075°31'0 0.0
2015-Apr-22 13:33N 39°43' W 075°31'0 0.0
2015-Apr-22 12:33N 39°43' W 075°31'0 0.0
2015-Apr-22 11:33N 39°43' W 075°31'0 0.0
2015-Apr-22 10:33N 39°43' W 075°31'0 0.0
2015-Apr-22 09:33N 39°43' W 075°31'0 0.0
2015-Apr-22 08:33N 39°43' W 075°31'0 0.0
2015-Apr-22 07:33N 39°43' W 075°31'0 0.0
2015-Apr-22 06:33N 39°43' W 075°31'0 0.0
2015-Apr-22 05:33N 39°43' W 075°31'0 0.0
2015-Apr-22 04:33N 39°43' W 075°31'0 0.0
2015-Apr-22 03:33N 39°43' W 075°31'0 0.0
2015-Apr-22 02:33N 39°43' W 075°31'0 0.0
2015-Apr-22 01:32N 39°43' W 075°31'0 0.0
2015-Apr-22 00:33N 39°43' W 075°31'0 0.0
2015-Apr-21 23:33N 39°43' W 075°31'0 0.0
2015-Apr-21 22:33N 39°43' W 075°31'0 0.0
2015-Apr-21 21:33N 39°43' W 075°31'4 3.7
2015-Apr-21 20:33N 39°40' W 075°33'5 4.8
2015-Apr-21 19:32N 39°35' W 075°35'2 1.7
2015-Apr-21 18:33N 39°35' W 075°33'4 3.9
2015-Apr-21 17:33N 39°38' W 075°36'6 6.0
2015-Apr-21 16:33N 39°43' W 075°31'0 0.0
2015-Apr-21 15:33N 39°43' W 075°31'0 0.0
2015-Apr-21 14:33N 39°43' W 075°31'0 0.0
2015-Apr-21 13:33N 39°43' W 075°31'0 0.0
2015-Apr-21 12:33N 39°43' W 075°31'0 0.0
2015-Apr-21 11:33N 39°43' W 075°31'0 0.0
2015-Apr-21 10:33N 39°43' W 075°31'0 0.0
2015-Apr-21 09:33N 39°43' W 075°31'0 0.0
2015-Apr-21 08:33N 39°43' W 075°31'0 0.0
2015-Apr-21 07:33N 39°43' W 075°31'0 0.0
2015-Apr-21 06:34N 39°43' W 075°31'0 0.0
2015-Apr-21 05:34N 39°43' W 075°31'0 0.0
2015-Apr-21 04:33N 39°43' W 075°31'0 0.0
2015-Apr-21 03:33N 39°43' W 075°31'0 0.0
2015-Apr-21 02:33N 39°43' W 075°31'0 0.0
2015-Apr-21 01:33N 39°43' W 075°31'0 0.0
2015-Apr-21 00:33N 39°43' W 075°31'0 0.0
2015-Apr-20 23:33N 39°43' W 075°31'0 0.0
2015-Apr-20 22:33N 39°43' W 075°31'8 7.6
2015-Apr-20 21:33N 39°36' W 075°34'10 9.9
2015-Apr-20 20:33N 39°26' W 075°32'1110.8
2015-Apr-20 19:33N 39°18' W 075°23'1110.9
2015-Apr-20 18:33N 39°09' W 075°15'1511.1
2015-Apr-20 17:13N 38°55' W 075°06'2 2.8
2015-Apr-20 16:33N 38°55' W 075°09'9 9.0
2015-Apr-20 15:33N 39°04' W 075°13'1110.3
2015-Apr-20 14:30N 39°14' W 075°18'1010.3
2015-Apr-20 13:33N 39°21' W 075°26'1111.1
2015-Apr-20 12:33N 39°31' W 075°33'1212.0
2015-Apr-20 11:33N 39°43' W 075°31'0 0.4
2015-Apr-20 10:33N 39°43' W 075°31'0 0.1
2015-Apr-20 09:34N 39°43' W 075°31'0 0.1
2015-Apr-20 08:33N 39°43' W 075°31'8 7.7
2015-Apr-20 07:33N 39°49' W 075°24'0 0.4
2015-Apr-20 06:33N 39°49' W 075°25'0 0.0
2015-Apr-20 05:33N 39°49' W 075°25'0 0.0
2015-Apr-20 04:33N 39°49' W 075°25'0 0.1
2015-Apr-20 03:33N 39°49' W 075°25'0 0.1
2015-Apr-20 02:33N 39°49' W 075°25'0 0.0
2015-Apr-20 01:33N 39°49' W 075°25'0 0.0
2015-Apr-20 00:33N 39°49' W 075°25'0 0.0
2015-Apr-19 23:34N 39°49' W 075°25'0 0.0
2015-Apr-19 22:33N 39°49' W 075°25'0 0.0
2015-Apr-19 21:33N 39°49' W 075°25'0 0.0
2015-Apr-19 20:33N 39°49' W 075°25'0 0.0
2015-Apr-19 19:33N 39°49' W 075°25'0 0.0
2015-Apr-19 18:33N 39°49' W 075°25'0 0.0
2015-Apr-19 17:33N 39°49' W 075°25'0 0.4
2015-Apr-19 16:33N 39°49' W 075°24'0 0.3
2015-Apr-19 15:33N 39°49' W 075°25'6 6.4
2015-Apr-19 14:34N 39°51' W 075°17'5 4.9
2015-Apr-19 13:33N 39°53' W 075°11'0 0.0
2015-Apr-19 12:34N 39°53' W 075°11'0 0.0
2015-Apr-19 11:33N 39°53' W 075°11'0 0.0
2015-Apr-19 10:33N 39°53' W 075°11'0 0.0
2015-Apr-19 09:33N 39°53' W 075°11'0 0.0
2015-Apr-19 08:33N 39°53' W 075°11'0 0.0
2015-Apr-19 07:33N 39°53' W 075°11'0 0.0
2015-Apr-19 06:33N 39°53' W 075°11'0 0.0
2015-Apr-19 05:33N 39°53' W 075°11'0 0.0
2015-Apr-19 04:33N 39°53' W 075°11'0 0.0
2015-Apr-19 03:33N 39°53' W 075°11'0 0.0
2015-Apr-19 02:33N 39°53' W 075°11'0 0.0
2015-Apr-19 01:33N 39°53' W 075°11'0 0.0
2015-Apr-19 00:33N 39°53' W 075°11'0 0.0
2015-Apr-18 23:33N 39°53' W 075°11'0 0.0
2015-Apr-18 22:33N 39°53' W 075°11'2 2.4
2015-Apr-18 21:33N 39°52' W 075°14'2 2.2
2015-Apr-18 20:33N 39°51' W 075°16'1 1.1
2015-Apr-18 19:33N 39°51' W 075°18'0 0.3
2015-Apr-18 18:33N 39°51' W 075°18'2 1.8
2015-Apr-18 17:33N 39°51' W 075°16'0 0.0
2015-Apr-18 16:34N 39°51' W 075°16'0 0.0
2015-Apr-18 15:34N 39°51' W 075°16'0 0.0
2015-Apr-18 14:33N 39°51' W 075°16'0 0.0
2015-Apr-18 13:33N 39°51' W 075°16'0 0.0
2015-Apr-18 12:33N 39°51' W 075°16'0 0.0
2015-Apr-18 11:34N 39°51' W 075°16'0 0.0
2015-Apr-18 10:33N 39°51' W 075°16'0 0.0
2015-Apr-18 09:33N 39°51' W 075°16'0 0.0
2015-Apr-18 08:33N 39°51' W 075°16'6 5.7
2015-Apr-18 07:33N 39°49' W 075°23'1 0.8
2015-Apr-18 06:33N 39°50' W 075°22'3 2.5
2015-Apr-18 05:33N 39°51' W 075°19'7 6.6
2015-Apr-18 04:33N 39°53' W 075°11'  
Track history (hours):
 
Tides and Currents Weather Stations Pressure Air Temp Water Temp Dewpoint Dewpoint Depression Visibility Wind Speed Wind Dir Waves Ship Positions

Capt. Harry

Owner: Wilmington Tug, Inc., New Castle, DE. More information available from US FCC via Universal Licensing System and Coast Guard Vessel Documentation Center.

Last reported at 2015-Apr-28 03:33 UTC. Time now 2015-Apr-28 03:47 UTC.
Position N 39°43' W 075°31'.

Type: Tug. MMSI: 367012530.

Date/timePositionNaut miles runAvg speedWind from/ knotsBaromVisibWave heightAir tempDewpointWater temp
2015-Apr-28 03:33N 39°43' W 075°31'0 0.0
2015-Apr-28 02:33N 39°43' W 075°31'0 0.0
2015-Apr-28 01:33N 39°43' W 075°31'0 0.0
2015-Apr-28 00:33N 39°43' W 075°31'0 0.0
2015-Apr-27 23:34N 39°43' W 075°31'0 0.0
2015-Apr-27 22:33N 39°43' W 075°31'0 0.0
2015-Apr-27 21:33N 39°43' W 075°31'0 0.0
2015-Apr-27 20:33N 39°43' W 075°31'0 0.0
2015-Apr-27 19:33N 39°43' W 075°31'0 0.0
2015-Apr-27 18:33N 39°43' W 075°31'0 0.0
2015-Apr-27 17:33N 39°43' W 075°31'0 0.0
2015-Apr-27 16:33N 39°43' W 075°31'0 0.0
2015-Apr-27 15:33N 39°43' W 075°31'0 0.0
2015-Apr-27 14:33N 39°43' W 075°31'0 0.0
2015-Apr-27 13:33N 39°43' W 075°31'0 0.0
2015-Apr-27 12:33N 39°43' W 075°31'0 0.0
2015-Apr-27 11:33N 39°43' W 075°31'0 0.0
2015-Apr-27 10:33N 39°43' W 075°31'0 0.0
2015-Apr-27 09:33N 39°43' W 075°31'0 0.0
2015-Apr-27 08:33N 39°43' W 075°31'0 0.0
2015-Apr-27 07:33N 39°43' W 075°31'0 0.0
2015-Apr-27 06:33N 39°43' W 075°31'0 0.0
2015-Apr-27 05:33N 39°43' W 075°31'0 0.0
2015-Apr-27 04:33N 39°43' W 075°31'0 0.0
2015-Apr-27 03:33N 39°43' W 075°31'0 0.0
2015-Apr-27 02:33N 39°43' W 075°31'0 0.0
2015-Apr-27 01:33N 39°43' W 075°31'0 0.0
2015-Apr-27 00:33N 39°43' W 075°31'0 0.0
2015-Apr-26 23:33N 39°43' W 075°31'0 0.0
2015-Apr-26 22:33N 39°43' W 075°31'0 0.0
2015-Apr-26 21:33N 39°43' W 075°31'0 0.0
2015-Apr-26 20:33N 39°43' W 075°31'0 0.0
2015-Apr-26 19:33N 39°43' W 075°31'0 0.0
2015-Apr-26 18:33N 39°43' W 075°31'0 0.0
2015-Apr-26 17:33N 39°43' W 075°31'0 0.0
2015-Apr-26 16:33N 39°43' W 075°31'0 0.0
2015-Apr-26 15:33N 39°43' W 075°31'0 0.0
2015-Apr-26 14:33N 39°43' W 075°31'0 0.0
2015-Apr-26 13:33N 39°43' W 075°31'0 0.0
2015-Apr-26 12:33N 39°43' W 075°31'0 0.0
2015-Apr-26 11:33N 39°43' W 075°31'0 0.0
2015-Apr-26 10:33N 39°43' W 075°31'0 0.0
2015-Apr-26 09:33N 39°43' W 075°31'0 0.0
2015-Apr-26 08:33N 39°43' W 075°31'0 0.0
2015-Apr-26 07:33N 39°43' W 075°31'0 0.0
2015-Apr-26 06:33N 39°43' W 075°31'0 0.0
2015-Apr-26 05:33N 39°43' W 075°31'0 0.0
2015-Apr-26 04:33N 39°43' W 075°31'0 0.0
2015-Apr-26 03:33N 39°43' W 075°31'0 0.0
2015-Apr-26 02:33N 39°43' W 075°31'0 0.0
2015-Apr-26 01:33N 39°43' W 075°31'0 0.0
2015-Apr-26 00:33N 39°43' W 075°31'0 0.0
2015-Apr-25 23:33N 39°43' W 075°31'0 0.0
2015-Apr-25 22:33N 39°43' W 075°31'0 0.0
2015-Apr-25 21:33N 39°43' W 075°31'0 0.0
2015-Apr-25 20:33N 39°43' W 075°31'0 0.0
2015-Apr-25 19:33N 39°43' W 075°31'0 0.0
2015-Apr-25 18:33N 39°43' W 075°31'0 0.0
2015-Apr-25 17:33N 39°43' W 075°31'9 9.2
2015-Apr-25 16:33N 39°49' W 075°23'5 5.3
2015-Apr-25 15:33N 39°51' W 075°16'0 0.2
2015-Apr-25 14:33N 39°51' W 075°16'0 0.0
2015-Apr-25 13:33N 39°51' W 075°16'3 2.9
2015-Apr-25 12:33N 39°51' W 075°19'1 0.9
2015-Apr-25 11:33N 39°51' W 075°20'2 1.9
2015-Apr-25 10:33N 39°50' W 075°22'2 2.3
2015-Apr-25 09:33N 39°49' W 075°25'0 0.0
2015-Apr-25 08:33N 39°49' W 075°25'0 0.4
2015-Apr-25 07:33N 39°49' W 075°24'0 0.4
2015-Apr-25 06:33N 39°48' W 075°25'7 7.3
2015-Apr-25 05:34N 39°43' W 075°31'0 0.0
2015-Apr-25 04:33N 39°43' W 075°31'0 0.0
2015-Apr-25 03:33N 39°43' W 075°31'0 0.0
2015-Apr-25 02:33N 39°43' W 075°31'0 0.0
2015-Apr-25 01:33N 39°43' W 075°31'0 0.0
2015-Apr-25 00:33N 39°43' W 075°31'0 0.0
2015-Apr-24 23:33N 39°43' W 075°31'1 0.5
2015-Apr-24 22:34N 39°43' W 075°31'0 0.4
2015-Apr-24 21:33N 39°43' W 075°30'9 8.8
2015-Apr-24 20:33N 39°35' W 075°35'0 0.0
2015-Apr-24 19:33N 39°35' W 075°35'2 2.3
2015-Apr-24 18:33N 39°37' W 075°36'7 7.0
2015-Apr-24 17:33N 39°43' W 075°31'0 0.0
2015-Apr-24 16:33N 39°43' W 075°31'0 0.0
2015-Apr-24 15:33N 39°43' W 075°31'0 0.0
2015-Apr-24 14:33N 39°43' W 075°31'7 6.6
2015-Apr-24 13:33N 39°38' W 075°36'6 6.3
2015-Apr-24 12:33N 39°32' W 075°33'5 4.6
2015-Apr-24 11:32N 39°27' W 075°33'5 5.6
2015-Apr-24 10:33N 39°23' W 075°28'6 5.7
2015-Apr-24 09:33N 39°19' W 075°24'6 6.3
2015-Apr-24 08:33N 39°14' W 075°18'7 6.6
2015-Apr-24 07:33N 39°08' W 075°14'7 6.6
2015-Apr-24 06:28N 39°02' W 075°09'13 6.3
2015-Apr-24 04:28N 39°13' W 075°18'1010.4
2015-Apr-24 03:33N 39°20' W 075°26'1111.4
2015-Apr-24 02:34N 39°30' W 075°34'5 5.4
2015-Apr-24 01:33N 39°35' W 075°35'0 0.2
2015-Apr-24 00:33N 39°35' W 075°35'0 0.0
2015-Apr-23 23:33N 39°35' W 075°35'0 0.2
2015-Apr-23 22:33N 39°35' W 075°35'0 0.0
2015-Apr-23 21:33N 39°35' W 075°35'2 1.7
2015-Apr-23 20:34N 39°35' W 075°33'5 5.3
2015-Apr-23 19:34N 39°40' W 075°32'3 3.4
2015-Apr-23 18:34N 39°43' W 075°31'0 0.0
2015-Apr-23 17:33N 39°43' W 075°31'0 0.0
2015-Apr-23 16:33N 39°43' W 075°31'0 0.2
2015-Apr-23 15:34N 39°43' W 075°31'0 0.0
2015-Apr-23 14:33N 39°43' W 075°31'0 0.0
2015-Apr-23 13:33N 39°43' W 075°31'0 0.0
2015-Apr-23 12:34N 39°43' W 075°31'0 0.0
2015-Apr-23 11:33N 39°43' W 075°31'0 0.0
2015-Apr-23 10:34N 39°43' W 075°31'0 0.0
2015-Apr-23 09:34N 39°43' W 075°31'0 0.0
2015-Apr-23 08:34N 39°43' W 075°31'0 0.0
2015-Apr-23 07:34N 39°43' W 075°31'0 0.0
2015-Apr-23 06:34N 39°43' W 075°31'0 0.0
2015-Apr-23 05:34N 39°43' W 075°31'0 0.0
2015-Apr-23 04:34N 39°43' W 075°31'0 0.0
2015-Apr-23 03:34N 39°43' W 075°31'0 0.0
2015-Apr-23 02:34N 39°43' W 075°31'0 0.0
2015-Apr-23 01:33N 39°43' W 075°31'0 0.0
2015-Apr-23 00:34N 39°43' W 075°31'0 0.0
2015-Apr-22 23:34N 39°43' W 075°31'0 0.0
2015-Apr-22 22:34N 39°43' W 075°31'1 0.6
2015-Apr-22 21:34N 39°43' W 075°31'8 8.4
2015-Apr-22 20:34N 39°35' W 075°34'1 0.8
2015-Apr-22 19:34N 39°35' W 075°35'0 0.0
2015-Apr-22 18:34N 39°35' W 075°35'0 0.0
2015-Apr-22 17:34N 39°35' W 075°35'0 0.4
2015-Apr-22 16:34N 39°35' W 075°36'1 1.4
2015-Apr-22 15:34N 39°36' W 075°36'8 7.6
2015-Apr-22 14:33N 39°43' W 075°31'0 0.0
2015-Apr-22 13:33N 39°43' W 075°31'0 0.0
2015-Apr-22 12:33N 39°43' W 075°31'0 0.0
2015-Apr-22 11:33N 39°43' W 075°31'0 0.0
2015-Apr-22 10:33N 39°43' W 075°31'0 0.0
2015-Apr-22 09:33N 39°43' W 075°31'0 0.0
2015-Apr-22 08:33N 39°43' W 075°31'0 0.0
2015-Apr-22 07:33N 39°43' W 075°31'0 0.0
2015-Apr-22 06:33N 39°43' W 075°31'0 0.0
2015-Apr-22 05:33N 39°43' W 075°31'0 0.0
2015-Apr-22 04:33N 39°43' W 075°31'0 0.0
2015-Apr-22 03:33N 39°43' W 075°31'0 0.0
2015-Apr-22 02:33N 39°43' W 075°31'0 0.0
2015-Apr-22 01:32N 39°43' W 075°31'0 0.0
2015-Apr-22 00:33N 39°43' W 075°31'0 0.0
2015-Apr-21 23:33N 39°43' W 075°31'0 0.0
2015-Apr-21 22:33N 39°43' W 075°31'0 0.0
2015-Apr-21 21:33N 39°43' W 075°31'4 3.7
2015-Apr-21 20:33N 39°40' W 075°33'5 4.8
2015-Apr-21 19:32N 39°35' W 075°35'2 1.7
2015-Apr-21 18:33N 39°35' W 075°33'4 3.9
2015-Apr-21 17:33N 39°38' W 075°36'6 6.0
2015-Apr-21 16:33N 39°43' W 075°31'0 0.0
2015-Apr-21 15:33N 39°43' W 075°31'0 0.0
2015-Apr-21 14:33N 39°43' W 075°31'0 0.0
2015-Apr-21 13:33N 39°43' W 075°31'0 0.0
2015-Apr-21 12:33N 39°43' W 075°31'0 0.0
2015-Apr-21 11:33N 39°43' W 075°31'0 0.0
2015-Apr-21 10:33N 39°43' W 075°31'0 0.0
2015-Apr-21 09:33N 39°43' W 075°31'0 0.0
2015-Apr-21 08:33N 39°43' W 075°31'0 0.0
2015-Apr-21 07:33N 39°43' W 075°31'0 0.0
2015-Apr-21 06:34N 39°43' W 075°31'0 0.0
2015-Apr-21 05:34N 39°43' W 075°31'0 0.0
2015-Apr-21 04:33N 39°43' W 075°31'0 0.0
2015-Apr-21 03:33N 39°43' W 075°31'0 0.0
2015-Apr-21 02:33N 39°43' W 075°31'0 0.0
2015-Apr-21 01:33N 39°43' W 075°31'0 0.0
2015-Apr-21 00:33N 39°43' W 075°31'0 0.0
2015-Apr-20 23:33N 39°43' W 075°31'0 0.0
2015-Apr-20 22:33N 39°43' W 075°31'8 7.6
2015-Apr-20 21:33N 39°36' W 075°34'10 9.9
2015-Apr-20 20:33N 39°26' W 075°32'1110.8
2015-Apr-20 19:33N 39°18' W 075°23'1110.9
2015-Apr-20 18:33N 39°09' W 075°15'1511.1
2015-Apr-20 17:13N 38°55' W 075°06'2 2.8
2015-Apr-20 16:33N 38°55' W 075°09'9 9.0
2015-Apr-20 15:33N 39°04' W 075°13'1110.3
2015-Apr-20 14:30N 39°14' W 075°18'1010.3
2015-Apr-20 13:33N 39°21' W 075°26'1111.1
2015-Apr-20 12:33N 39°31' W 075°33'1212.0
2015-Apr-20 11:33N 39°43' W 075°31'0 0.4
2015-Apr-20 10:33N 39°43' W 075°31'0 0.1
2015-Apr-20 09:34N 39°43' W 075°31'0 0.1
2015-Apr-20 08:33N 39°43' W 075°31'8 7.7
2015-Apr-20 07:33N 39°49' W 075°24'0 0.4
2015-Apr-20 06:33N 39°49' W 075°25'0 0.0
2015-Apr-20 05:33N 39°49' W 075°25'0 0.0
2015-Apr-20 04:33N 39°49' W 075°25'0 0.1
2015-Apr-20 03:33N 39°49' W 075°25'0 0.1
2015-Apr-20 02:33N 39°49' W 075°25'0 0.0
2015-Apr-20 01:33N 39°49' W 075°25'0 0.0
2015-Apr-20 00:33N 39°49' W 075°25'0 0.0
2015-Apr-19 23:34N 39°49' W 075°25'0 0.0
2015-Apr-19 22:33N 39°49' W 075°25'0 0.0
2015-Apr-19 21:33N 39°49' W 075°25'0 0.0
2015-Apr-19 20:33N 39°49' W 075°25'0 0.0
2015-Apr-19 19:33N 39°49' W 075°25'0 0.0
2015-Apr-19 18:33N 39°49' W 075°25'0 0.0
2015-Apr-19 17:33N 39°49' W 075°25'0 0.4
2015-Apr-19 16:33N 39°49' W 075°24'0 0.3
2015-Apr-19 15:33N 39°49' W 075°25'6 6.4
2015-Apr-19 14:34N 39°51' W 075°17'5 4.9
2015-Apr-19 13:33N 39°53' W 075°11'0 0.0
2015-Apr-19 12:34N 39°53' W 075°11'0 0.0
2015-Apr-19 11:33N 39°53' W 075°11'0 0.0
2015-Apr-19 10:33N 39°53' W 075°11'0 0.0
2015-Apr-19 09:33N 39°53' W 075°11'0 0.0
2015-Apr-19 08:33N 39°53' W 075°11'0 0.0
2015-Apr-19 07:33N 39°53' W 075°11'0 0.0
2015-Apr-19 06:33N 39°53' W 075°11'0 0.0
2015-Apr-19 05:33N 39°53' W 075°11'0 0.0
2015-Apr-19 04:33N 39°53' W 075°11'0 0.0
2015-Apr-19 03:33N 39°53' W 075°11'0 0.0
2015-Apr-19 02:33N 39°53' W 075°11'0 0.0
2015-Apr-19 01:33N 39°53' W 075°11'0 0.0
2015-Apr-19 00:33N 39°53' W 075°11'0 0.0
2015-Apr-18 23:33N 39°53' W 075°11'0 0.0
2015-Apr-18 22:33N 39°53' W 075°11'2 2.4
2015-Apr-18 21:33N 39°52' W 075°14'2 2.2
2015-Apr-18 20:33N 39°51' W 075°16'1 1.1
2015-Apr-18 19:33N 39°51' W 075°18'0 0.3
2015-Apr-18 18:33N 39°51' W 075°18'2 1.8
2015-Apr-18 17:33N 39°51' W 075°16'0 0.0
2015-Apr-18 16:34N 39°51' W 075°16'0 0.0
2015-Apr-18 15:34N 39°51' W 075°16'0 0.0
2015-Apr-18 14:33N 39°51' W 075°16'0 0.0
2015-Apr-18 13:33N 39°51' W 075°16'0 0.0
2015-Apr-18 12:33N 39°51' W 075°16'0 0.0
2015-Apr-18 11:34N 39°51' W 075°16'0 0.0
2015-Apr-18 10:33N 39°51' W 075°16'0 0.0
2015-Apr-18 09:33N 39°51' W 075°16'0 0.0
2015-Apr-18 08:33N 39°51' W 075°16'6 5.7
2015-Apr-18 07:33N 39°49' W 075°23'1 0.8
2015-Apr-18 06:33N 39°50' W 075°22'3 2.5
2015-Apr-18 05:33N 39°51' W 075°19'7 6.6
2015-Apr-18 04:33N 39°53' W 075°11'  

Dump ship's entire track history